Time;durP1;ratioP1;P1;durP2;ratioP2;P2;SDS_P1;SDS_P2;PMS_P1;PMS_P2;Temp;Humidity;BMP_temperature;BMP_pressure;BME280_temperature;BME280_humidity;BME280_pressure;Samples;Min_cycle;Max_cycle;Signal;HPM_P1;HPM_P2
2023/05/03 00:00:53;;;;;;;7.30;5.63;;;;;;;;;;5065833;28;20526;-78
2023/05/03 00:03:24;;;;;;;6.43;5.93;;;;;;;;;;5062293;28;20452;-77
2023/05/03 00:05:54;;;;;;;5.83;5.33;;;;;;;;;;5062501;28;20430;-77
2023/05/03 00:08:28;;;;;;;6.17;5.70;;;;;;;;;;5059594;28;20477;-77
2023/05/03 00:11:06;;;;;;;5.90;5.30;;;;;;;;;;5058950;28;20477;-77
2023/05/03 00:13:41;;;;;;;6.60;5.90;;;;;;;;;;5059528;28;20462;-79
2023/05/03 00:16:20;;;;;;;5.90;5.40;;;;;;;;;;5057133;28;20603;-77
2023/05/03 00:18:54;;;;;;;6.27;5.63;;;;;;;;;;5070220;28;20769;-79
2023/05/03 00:21:33;;;;;;;6.60;5.50;;;;;;;;;;5081812;28;20880;-79
2023/05/03 00:24:08;;;;;;;6.93;6.33;;;;;;;;;;5081355;28;20452;-77
2023/05/03 00:27:17;;;;;;;6.10;5.53;;;;;;;;;;5080365;28;20476;-78
2023/05/03 00:29:55;;;;;;;6.43;5.83;;;;;;;;;;5082238;28;20448;-78
2023/05/03 00:32:33;;;;;;;6.23;5.73;;;;;;;;;;5084810;28;20448;-77
2023/05/03 00:38:10;;;;;;;5.70;5.30;;;;;;;;;;5061526;28;20451;-80
2023/05/03 00:40:42;;;;;;;6.33;5.83;;;;;;;;;;5085493;28;20476;-77
2023/05/03 00:43:13;;;;;;;6.67;6.07;;;;;;;;;;5084665;28;20909;-77
2023/05/03 00:46:08;;;;;;;7.00;5.60;;;;;;;;;;5081136;28;20467;-78
2023/05/03 00:48:51;;;;;;;6.80;6.20;;;;;;;;;;5077693;28;20473;-77
2023/05/03 00:51:38;;;;;;;6.73;6.13;;;;;;;;;;5074994;28;20437;-77
2023/05/03 00:56:53;;;;;;;7.63;6.40;;;;;;;;;;5070153;28;20617;-79
2023/05/03 00:59:36;;;;;;;6.90;6.23;;;;;;;;;;5074606;28;20468;-78
2023/05/03 01:02:12;;;;;;;6.30;5.70;;;;;;;;;;5072704;28;20433;-77
2023/05/03 01:04:51;;;;;;;6.60;5.90;;;;;;;;;;5076975;28;20502;-77
2023/05/03 01:07:25;;;;;;;8.80;6.70;;;;;;;;;;5077119;28;20483;-78
2023/05/03 01:09:57;;;;;;;6.93;6.30;;;;;;;;;;5076840;28;20433;-78
2023/05/03 01:12:32;;;;;;;6.50;5.90;;;;;;;;;;5076588;28;20479;-78
2023/05/03 01:15:13;;;;;;;6.37;5.73;;;;;;;;;;5077416;28;20594;-77
2023/05/03 01:17:58;;;;;;;6.70;6.20;;;;;;;;;;5077574;28;20452;-78
2023/05/03 01:23:42;;;;;;;7.37;6.70;;;;;;;;;;4995025;28;20435;-77
2023/05/03 01:26:35;;;;;;;7.40;6.80;;;;;;;;;;5040669;28;20464;-78
2023/05/03 01:40:09;;;;;;;6.70;6.10;;;;;;;;;;4979423;28;21002;-77
2023/05/03 01:42:47;;;;;;;8.03;7.33;;;;;;;;;;5033592;28;20451;-78
2023/05/03 01:45:27;;;;;;;8.17;6.63;;;;;;;;;;5033771;28;20573;-77
2023/05/03 01:47:57;;;;;;;7.80;7.00;;;;;;;;;;5032990;28;20474;-78
2023/05/03 01:50:45;;;;;;;7.63;6.60;;;;;;;;;;5033951;28;20462;-76
2023/05/03 01:53:16;;;;;;;7.43;6.83;;;;;;;;;;5034119;28;20450;-78
2023/05/03 01:56:07;;;;;;;8.10;7.03;;;;;;;;;;5034273;28;20470;-77
2023/05/03 01:58:44;;;;;;;8.53;7.57;;;;;;;;;;5033798;28;20505;-77
2023/05/03 02:01:33;;;;;;;7.73;6.93;;;;;;;;;;5034072;28;20474;-77
2023/05/03 02:04:05;;;;;;;9.03;7.60;;;;;;;;;;5033968;28;20521;-77
2023/05/03 02:06:42;;;;;;;7.83;7.03;;;;;;;;;;5031923;28;20828;-77
2023/05/03 02:09:15;;;;;;;9.43;7.10;;;;;;;;;;5030923;28;20489;-77
2023/05/03 02:11:48;;;;;;;9.00;7.30;;;;;;;;;;5031081;28;20894;-77
2023/05/03 02:14:20;;;;;;;7.30;6.70;;;;;;;;;;5030763;28;20465;-78
2023/05/03 02:16:54;;;;;;;8.47;7.67;;;;;;;;;;5030543;28;20488;-78
2023/05/03 02:19:30;;;;;;;7.73;7.00;;;;;;;;;;5031545;28;20532;-77
2023/05/03 02:22:10;;;;;;;8.40;7.10;;;;;;;;;;5035750;28;20577;-77
2023/05/03 02:27:39;;;;;;;8.50;7.60;;;;;;;;;;5027689;28;20546;-79
2023/05/03 02:30:14;;;;;;;8.70;7.47;;;;;;;;;;5034961;28;20499;-80
2023/05/03 02:32:54;;;;;;;9.67;7.83;;;;;;;;;;5035224;28;20445;-77
2023/05/03 02:35:28;;;;;;;8.47;7.60;;;;;;;;;;5034274;28;20461;-78
2023/05/03 02:38:02;;;;;;;8.87;8.00;;;;;;;;;;5038097;28;20470;-79
2023/05/03 02:40:30;;;;;;;8.83;8.03;;;;;;;;;;5046957;28;21053;-78
2023/05/03 02:43:11;;;;;;;8.43;7.40;;;;;;;;;;5047440;28;20480;-78
2023/05/03 02:45:58;;;;;;;10.00;7.83;;;;;;;;;;5047061;28;20450;-78
2023/05/03 02:53:59;;;;;;;9.03;8.13;;;;;;;;;;5042666;28;20449;-77
2023/05/03 02:56:28;;;;;;;10.30;8.20;;;;;;;;;;5036580;28;20478;-77
2023/05/03 03:01:48;;;;;;;9.70;8.80;;;;;;;;;;5042787;28;20541;-77
2023/05/03 03:04:20;;;;;;;9.53;8.00;;;;;;;;;;5044800;28;20422;-78
2023/05/03 03:06:55;;;;;;;9.07;8.17;;;;;;;;;;5043729;28;20426;-78
2023/05/03 03:09:24;;;;;;;9.73;8.17;;;;;;;;;;5043536;28;20473;-78
2023/05/03 03:12:19;;;;;;;9.60;8.60;;;;;;;;;;5039208;28;20447;-78
2023/05/03 03:15:13;;;;;;;9.77;7.87;;;;;;;;;;5036620;28;20442;-78
2023/05/03 03:17:50;;;;;;;8.67;7.80;;;;;;;;;;5035585;28;20478;-77
2023/05/03 03:20:23;;;;;;;10.90;8.20;;;;;;;;;;5035746;28;20987;-78
2023/05/03 03:22:51;;;;;;;10.10;8.67;;;;;;;;;;5036258;28;20967;-79
2023/05/03 03:25:29;;;;;;;9.40;8.40;;;;;;;;;;5036751;28;20450;-80
2023/05/03 03:28:07;;;;;;;9.07;8.20;;;;;;;;;;5037340;28;20802;-77
2023/05/03 03:30:42;;;;;;;13.17;8.70;;;;;;;;;;5038062;28;20832;-77
2023/05/03 03:33:15;;;;;;;10.93;9.90;;;;;;;;;;5038539;28;20493;-79
2023/05/03 03:35:44;;;;;;;12.53;9.90;;;;;;;;;;5037523;28;20858;-79
2023/05/03 03:38:12;;;;;;;12.73;9.40;;;;;;;;;;5038468;28;20525;-77
2023/05/03 03:40:45;;;;;;;13.13;10.30;;;;;;;;;;5038187;28;20486;-79
2023/05/03 03:43:22;;;;;;;10.90;9.80;;;;;;;;;;5038500;28;20474;-77
2023/05/03 03:45:58;;;;;;;9.87;8.77;;;;;;;;;;5037531;28;20474;-79
2023/05/03 03:48:41;;;;;;;11.33;9.73;;;;;;;;;;5036795;28;20473;-79
2023/05/03 03:51:28;;;;;;;;;;;;;;;;;;;;;
2023/05/03 03:53:57;;;;;;;12.27;9.23;;;;;;;;;;5043184;28;20442;-77
2023/05/03 04:02:46;;;;;;;11.90;9.43;;;;;;;;;;5041840;28;20514;-78
2023/05/03 04:08:28;;;;;;;11.37;10.27;;;;;;;;;;5031955;28;20475;-80
2023/05/03 04:13:55;;;;;;;12.40;10.93;;;;;;;;;;5041077;28;20534;-77
2023/05/03 04:16:23;;;;;;;11.70;9.53;;;;;;;;;;5049180;28;20437;-78
2023/05/03 04:19:05;;;;;;;11.50;10.30;;;;;;;;;;5055047;28;20477;-77
2023/05/03 04:21:37;;;;;;;12.60;10.90;;;;;;;;;;5065346;28;20481;-78
2023/05/03 04:24:17;;;;;;;11.27;10.17;;;;;;;;;;5064677;28;20456;-78
2023/05/03 04:27:03;;;;;;;15.47;10.63;;;;;;;;;;5061481;28;20453;-79
2023/05/03 04:29:35;;;;;;;14.73;10.53;;;;;;;;;;5061874;28;20469;-80
2023/05/03 04:32:13;;;;;;;13.47;10.90;;;;;;;;;;5062038;28;20540;-77
2023/05/03 04:34:54;;;;;;;13.40;11.30;;;;;;;;;;5061397;28;20453;-78
2023/05/03 04:37:44;;;;;;;12.07;10.80;;;;;;;;;;5064215;28;20517;-79
2023/05/03 04:40:21;;;;;;;12.00;10.77;;;;;;;;;;5064984;28;20449;-79
2023/05/03 04:45:41;;;;;;;12.63;11.33;;;;;;;;;;5065129;28;20716;-78
2023/05/03 04:48:16;;;;;;;13.40;10.80;;;;;;;;;;5068277;28;20552;-78
2023/05/03 04:51:01;;;;;;;15.93;11.80;;;;;;;;;;5065834;28;20519;-80
2023/05/03 04:54:01;;;;;;;16.90;12.33;;;;;;;;;;5066764;28;20445;-79
2023/05/03 04:56:40;;;;;;;14.03;9.93;;;;;;;;;;5066700;28;20453;-79
2023/05/03 04:59:21;;;;;;;15.73;12.23;;;;;;;;;;5064392;28;20450;-79
2023/05/03 05:01:52;;;;;;;22.93;11.20;;;;;;;;;;5060917;28;20442;-80
2023/05/03 05:04:21;;;;;;;13.53;11.03;;;;;;;;;;5064013;28;20402;-78
2023/05/03 05:06:52;;;;;;;18.03;12.10;;;;;;;;;;5064679;28;20892;-79
2023/05/03 05:09:25;;;;;;;15.30;11.60;;;;;;;;;;5062214;28;20457;-79
2023/05/03 05:11:56;;;;;;;14.63;11.40;;;;;;;;;;5064565;28;20484;-78
2023/05/03 05:14:43;;;;;;;14.57;11.60;;;;;;;;;;5064930;28;20499;-79
2023/05/03 05:17:13;;;;;;;12.93;11.33;;;;;;;;;;5065000;28;20456;-81
2023/05/03 05:19:44;;;;;;;15.40;12.27;;;;;;;;;;5047895;28;20442;-81
2023/05/03 05:22:27;;;;;;;16.73;12.33;;;;;;;;;;5043279;28;20473;-80
2023/05/03 05:25:08;;;;;;;13.53;11.13;;;;;;;;;;5037640;28;20451;-79
2023/05/03 05:27:59;;;;;;;15.43;12.07;;;;;;;;;;5040455;28;20999;-79
2023/05/03 05:33:58;;;;;;;13.30;11.50;;;;;;;;;;5040904;28;20550;-80
2023/05/03 05:36:27;;;;;;;12.33;10.80;;;;;;;;;;5040096;28;20446;-79
2023/05/03 05:39:00;;;;;;;14.10;11.57;;;;;;;;;;5036070;28;20500;-82
2023/05/03 05:41:35;;;;;;;14.13;12.63;;;;;;;;;;5037490;28;21019;-78
2023/05/03 05:44:12;;;;;;;14.60;11.27;;;;;;;;;;5041312;28;20430;-81
2023/05/03 05:46:52;;;;;;;13.03;11.73;;;;;;;;;;5038200;28;20450;-80
2023/05/03 05:49:27;;;;;;;13.47;11.97;;;;;;;;;;5041224;28;20477;-81
2023/05/03 05:51:58;;;;;;;12.23;11.03;;;;;;;;;;5042728;28;20489;-80
2023/05/03 05:54:25;;;;;;;13.67;11.70;;;;;;;;;;5041447;28;20520;-80
2023/05/03 05:57:05;;;;;;;15.13;11.93;;;;;;;;;;5038865;28;20462;-80
2023/05/03 05:59:33;;;;;;;14.60;12.07;;;;;;;;;;5041378;28;20466;-78
2023/05/03 06:02:04;;;;;;;15.10;11.80;;;;;;;;;;5038228;28;20544;-79
2023/05/03 06:04:35;;;;;;;12.50;10.90;;;;;;;;;;5036264;28;20952;-78
2023/05/03 06:07:17;;;;;;;12.57;11.37;;;;;;;;;;5040948;28;20415;-79
2023/05/03 06:09:47;;;;;;;13.50;10.63;;;;;;;;;;5035256;28;20450;-79
2023/05/03 06:12:21;;;;;;;16.83;12.77;;;;;;;;;;5033287;28;20478;-78
2023/05/03 06:15:11;;;;;;;13.73;11.47;;;;;;;;;;5037895;28;20527;-78
2023/05/03 06:37:09;;;;;;;19.70;11.90;;;;;;;;;;5074943;28;20491;-79
2023/05/03 06:39:38;;;;;;;14.03;11.40;;;;;;;;;;5060209;28;20475;-78
2023/05/03 06:42:10;;;;;;;13.30;11.90;;;;;;;;;;5069413;28;20686;-79
2023/05/03 06:44:39;;;;;;;14.67;12.03;;;;;;;;;;5069655;28;20426;-79
2023/05/03 06:47:11;;;;;;;13.60;12.20;;;;;;;;;;5070410;28;20441;-79
2023/05/03 06:49:42;;;;;;;14.60;12.40;;;;;;;;;;5071802;28;20893;-77
2023/05/03 06:52:15;;;;;;;13.53;12.13;;;;;;;;;;5069989;28;20466;-79
2023/05/03 06:54:47;;;;;;;13.00;11.60;;;;;;;;;;5069153;28;20455;-78
2023/05/03 06:57:18;;;;;;;13.10;11.80;;;;;;;;;;5068101;28;20441;-79
2023/05/03 07:00:05;;;;;;;14.10;12.13;;;;;;;;;;5070877;28;20456;-78
2023/05/03 07:02:39;;;;;;;14.33;12.83;;;;;;;;;;5069519;28;20452;-79
2023/05/03 07:05:08;;;;;;;14.13;12.20;;;;;;;;;;5071395;28;20405;-78
2023/05/03 07:07:37;;;;;;;15.57;12.23;;;;;;;;;;5070214;28;20536;-79
2023/05/03 07:10:08;;;;;;;17.10;12.80;;;;;;;;;;5068633;28;20466;-79
2023/05/03 07:12:42;;;;;;;15.57;11.57;;;;;;;;;;5066146;28;20531;-79
2023/05/03 07:15:15;;;;;;;12.93;11.63;;;;;;;;;;5068061;28;20446;-78
2023/05/03 07:17:47;;;;;;;13.70;12.30;;;;;;;;;;5066603;28;20473;-79
2023/05/03 07:20:16;;;;;;;14.63;13.13;;;;;;;;;;5067857;28;20426;-76
2023/05/03 07:22:47;;;;;;;13.17;11.80;;;;;;;;;;5069493;28;20481;-79
2023/05/03 07:25:22;;;;;;;12.63;10.83;;;;;;;;;;5067755;28;20488;-78
2023/05/03 07:27:51;;;;;;;20.43;18.73;;;;;;;;;;5068114;28;20465;-79
2023/05/03 07:30:28;;;;;;;13.10;11.70;;;;;;;;;;5068450;28;20977;-79
2023/05/03 07:32:59;;;;;;;13.53;11.50;;;;;;;;;;5068545;28;20496;-78
2023/05/03 07:35:32;;;;;;;11.80;10.67;;;;;;;;;;5069594;28;20452;-76
2023/05/03 07:38:07;;;;;;;12.70;10.37;;;;;;;;;;5069250;28;20469;-78
2023/05/03 07:40:46;;;;;;;12.20;11.00;;;;;;;;;;5070466;28;20552;-75
2023/05/03 07:43:15;;;;;;;13.30;11.90;;;;;;;;;;5066108;28;20479;-76
2023/05/03 07:45:45;;;;;;;11.67;10.10;;;;;;;;;;5066303;28;20442;-77
2023/05/03 07:48:20;;;;;;;11.77;10.67;;;;;;;;;;5066656;28;20480;-79
2023/05/03 07:50:48;;;;;;;11.83;10.30;;;;;;;;;;5064274;28;20784;-77
2023/05/03 07:53:16;;;;;;;12.03;10.90;;;;;;;;;;5059820;28;20473;-77
2023/05/03 07:55:46;;;;;;;11.57;10.37;;;;;;;;;;5059171;28;20615;-78
2023/05/03 07:58:15;;;;;;;10.97;9.87;;;;;;;;;;5064102;28;20478;-78
2023/05/03 08:00:53;;;;;;;11.27;10.00;;;;;;;;;;5070167;28;20446;-78
2023/05/03 08:06:12;;;;;;;10.70;9.13;;;;;;;;;;5065140;28;20428;-78
2023/05/03 08:08:41;;;;;;;11.33;10.30;;;;;;;;;;5063200;28;20468;-79
2023/05/03 08:11:10;;;;;;;11.33;10.23;;;;;;;;;;5062365;28;20453;-76
2023/05/03 08:13:40;;;;;;;12.90;11.07;;;;;;;;;;5063292;28;20651;-79
2023/05/03 08:16:08;;;;;;;12.77;10.90;;;;;;;;;;5059658;28;20521;-78
2023/05/03 08:18:48;;;;;;;12.30;11.10;;;;;;;;;;5060904;28;20449;-78
2023/05/03 08:21:23;;;;;;;12.47;11.20;;;;;;;;;;5062800;28;20915;-77
2023/05/03 08:23:56;;;;;;;12.97;11.77;;;;;;;;;;5066919;28;20541;-78
2023/05/03 08:26:29;;;;;;;11.30;10.30;;;;;;;;;;5068291;28;20450;-77
2023/05/03 08:29:06;;;;;;;11.90;10.80;;;;;;;;;;5066950;28;20473;-76
2023/05/03 08:31:38;;;;;;;11.53;10.43;;;;;;;;;;5068227;28;20449;-80
2023/05/03 08:34:12;;;;;;;12.10;9.97;;;;;;;;;;5066779;28;20473;-78
2023/05/03 08:36:41;;;;;;;11.60;10.40;;;;;;;;;;5066240;28;20507;-77
2023/05/03 08:41:49;;;;;;;13.80;11.40;;;;;;;;;;5096435;23;20627;-78
2023/05/03 08:44:27;;;;;;;12.20;10.93;;;;;;;;;;5067264;28;20461;-80
2023/05/03 08:46:56;;;;;;;11.97;10.80;;;;;;;;;;5067281;28;20530;-79
2023/05/03 08:49:29;;;;;;;10.40;9.50;;;;;;;;;;5068369;28;20485;-79
2023/05/03 08:52:10;;;;;;;11.10;10.10;;;;;;;;;;5069715;28;20500;-79
2023/05/03 08:54:44;;;;;;;11.73;10.53;;;;;;;;;;5068241;28;20452;-79
2023/05/03 08:57:25;;;;;;;11.00;9.80;;;;;;;;;;5068327;28;20449;-79
2023/05/03 08:59:59;;;;;;;12.17;10.80;;;;;;;;;;5068515;28;20458;-77
2023/05/03 09:02:33;;;;;;;11.40;10.47;;;;;;;;;;5066121;28;20465;-79
2023/05/03 09:05:06;;;;;;;10.00;8.83;;;;;;;;;;5063398;28;20504;-78
2023/05/03 09:07:37;;;;;;;10.17;9.30;;;;;;;;;;5063122;28;20561;-79
2023/05/03 09:10:18;;;;;;;10.47;9.60;;;;;;;;;;5062624;28;20446;-80
2023/05/03 09:12:48;;;;;;;10.40;9.30;;;;;;;;;;5061518;28;20483;-78
2023/05/03 09:15:25;;;;;;;11.33;10.23;;;;;;;;;;5061861;28;20863;-78
2023/05/03 09:18:20;;;;;;;11.70;10.67;;;;;;;;;;5062311;28;20478;-78
2023/05/03 09:20:52;;;;;;;11.73;10.10;;;;;;;;;;5060415;28;20460;-77
2023/05/03 09:26:32;;;;;;;10.20;9.30;;;;;;;;;;5028390;28;20425;-82
2023/05/03 09:29:42;;;;;;;10.67;9.67;;;;;;;;;;5067496;28;20854;-79
2023/05/03 09:32:21;;;;;;;12.60;10.87;;;;;;;;;;5065932;28;20596;-78
2023/05/03 09:34:56;;;;;;;10.90;9.80;;;;;;;;;;5045219;28;20450;-76
2023/05/03 09:37:37;;;;;;;10.40;9.50;;;;;;;;;;5061025;28;20504;-78
2023/05/03 09:40:11;;;;;;;10.40;9.50;;;;;;;;;;5061922;28;20487;-81
2023/05/03 09:43:05;;;;;;;10.60;9.60;;;;;;;;;;5058833;28;20453;-83
2023/05/03 09:45:35;;;;;;;11.10;10.10;;;;;;;;;;5060152;28;20457;-79
2023/05/03 09:48:07;;;;;;;10.70;9.70;;;;;;;;;;5057878;28;20676;-79
2023/05/03 09:50:38;;;;;;;10.70;9.80;;;;;;;;;;5058692;28;20453;-76
2023/05/03 09:53:11;;;;;;;9.73;8.87;;;;;;;;;;5060597;28;20481;-79
2023/05/03 09:55:42;;;;;;;9.37;8.50;;;;;;;;;;5062114;28;20726;-79
2023/05/03 09:58:17;;;;;;;9.10;8.30;;;;;;;;;;5056544;28;20504;-78
2023/05/03 10:03:43;;;;;;;9.40;8.50;;;;;;;;;;5057646;28;20446;-77
2023/05/03 10:06:25;;;;;;;9.13;8.40;;;;;;;;;;5055885;28;20430;-77
2023/05/03 10:09:09;;;;;;;8.80;7.90;;;;;;;;;;5057206;28;20466;-78
2023/05/03 10:11:38;;;;;;;8.53;7.83;;;;;;;;;;5055376;28;20441;-77
2023/05/03 10:14:15;;;;;;;9.13;8.30;;;;;;;;;;5055127;28;20488;-77
2023/05/03 10:16:49;;;;;;;9.53;8.40;;;;;;;;;;5055040;28;20449;-78
2023/05/03 10:19:29;;;;;;;9.50;8.70;;;;;;;;;;5052696;28;20508;-77
2023/05/03 10:22:03;;;;;;;8.13;7.53;;;;;;;;;;5055104;28;20453;-76
2023/05/03 10:24:32;;;;;;;8.50;7.80;;;;;;;;;;5055816;28;20479;-76
2023/05/03 10:27:03;;;;;;;8.27;7.57;;;;;;;;;;5055367;28;20453;-76
2023/05/03 10:29:48;;;;;;;9.00;8.00;;;;;;;;;;5054067;28;20523;-79
2023/05/03 10:32:38;;;;;;;8.70;7.90;;;;;;;;;;5054927;28;20473;-77
2023/05/03 10:35:10;;;;;;;7.93;7.23;;;;;;;;;;5052329;28;20854;-77
2023/05/03 10:37:41;;;;;;;9.63;8.73;;;;;;;;;;5053832;28;20481;-78
2023/05/03 10:40:14;;;;;;;7.73;7.00;;;;;;;;;;5055467;28;20445;-76
2023/05/03 10:43:14;;;;;;;7.77;7.07;;;;;;;;;;5058444;28;20442;-77
2023/05/03 10:45:50;;;;;;;7.37;6.80;;;;;;;;;;5059211;28;20425;-78
2023/05/03 10:48:49;;;;;;;7.07;6.50;;;;;;;;;;5057663;28;20460;-79
2023/05/03 10:51:46;;;;;;;7.03;6.53;;;;;;;;;;5057674;28;21013;-79
2023/05/03 10:54:23;;;;;;;8.63;6.63;;;;;;;;;;5056295;28;20986;-78
2023/05/03 10:57:03;;;;;;;7.17;6.47;;;;;;;;;;5058855;28;20449;-78
2023/05/03 10:59:57;;;;;;;7.53;6.93;;;;;;;;;;5060932;28;21272;-79
2023/05/03 11:02:35;;;;;;;7.00;6.50;;;;;;;;;;5056825;28;20437;-80
2023/05/03 11:20:31;;;;;;;6.37;5.87;;;;;;;;;;5059953;28;20508;-78
2023/05/03 11:26:24;;;;;;;7.77;7.07;;;;;;;;;;5017654;28;20435;-79
2023/05/03 11:29:29;;;;;;;6.60;6.00;;;;;;;;;;5071326;28;20492;-80
2023/05/03 11:41:31;;;;;;;;;;;;;;;;;;;;;
2023/05/03 11:44:26;;;;;;;6.97;6.47;;;;;;;;;;4976803;28;20445;-78
2023/05/03 11:47:03;;;;;;;7.50;6.90;;;;;;;;;;4974807;28;20445;-77
2023/05/03 11:49:31;;;;;;;6.43;5.90;;;;;;;;;;5037130;28;20454;-79
2023/05/03 11:51:59;;;;;;;6.60;6.20;;;;;;;;;;5035109;28;20532;-78
2023/05/03 11:54:28;;;;;;;6.10;5.60;;;;;;;;;;5035009;28;20928;-77
2023/05/03 11:57:00;;;;;;;6.87;6.30;;;;;;;;;;5034098;28;20492;-78
2023/05/03 11:59:40;;;;;;;6.93;6.33;;;;;;;;;;5033831;28;20843;-78
2023/05/03 12:02:08;;;;;;;7.20;6.67;;;;;;;;;;5034260;28;20469;-78
2023/05/03 12:04:43;;;;;;;6.90;6.40;;;;;;;;;;5033472;28;20947;-77
2023/05/03 12:07:12;;;;;;;6.40;6.00;;;;;;;;;;5034523;28;20504;-78
2023/05/03 12:09:43;;;;;;;8.17;7.37;;;;;;;;;;5034447;28;20439;-77
2023/05/03 12:12:11;;;;;;;6.20;5.70;;;;;;;;;;5036512;28;20458;-78
2023/05/03 12:14:59;;;;;;;7.50;6.90;;;;;;;;;;5036355;28;21029;-80
2023/05/03 12:17:38;;;;;;;6.80;6.23;;;;;;;;;;5037007;28;20458;-77
2023/05/03 12:20:19;;;;;;;6.80;6.30;;;;;;;;;;5057660;28;20445;-77
2023/05/03 12:22:50;;;;;;;5.70;5.27;;;;;;;;;;5057107;28;20783;-76
2023/05/03 12:25:23;;;;;;;6.50;6.00;;;;;;;;;;5057971;28;20513;-78
2023/05/03 12:27:50;;;;;;;6.33;5.73;;;;;;;;;;5056988;28;20529;-77
2023/05/03 12:30:20;;;;;;;5.83;5.43;;;;;;;;;;5054686;28;20962;-77
2023/05/03 12:32:47;;;;;;;5.50;5.10;;;;;;;;;;5053592;28;20450;-79
2023/05/03 12:35:16;;;;;;;5.10;4.80;;;;;;;;;;5053374;28;20895;-76
2023/05/03 12:37:54;;;;;;;4.67;4.37;;;;;;;;;;5054350;28;20466;-77
2023/05/03 12:40:27;;;;;;;5.50;5.10;;;;;;;;;;5054406;28;20445;-77
2023/05/03 12:42:55;;;;;;;4.87;4.47;;;;;;;;;;5054555;28;20449;-76
2023/05/03 12:45:26;;;;;;;5.30;4.90;;;;;;;;;;5054044;28;20454;-76
2023/05/03 12:47:53;;;;;;;6.60;6.00;;;;;;;;;;5056195;28;20465;-78
2023/05/03 12:50:23;;;;;;;5.13;4.83;;;;;;;;;;5055629;28;20458;-77
2023/05/03 12:52:58;;;;;;;4.70;4.40;;;;;;;;;;5055693;28;21045;-76
2023/05/03 12:55:32;;;;;;;4.33;3.93;;;;;;;;;;5054338;28;21012;-76
2023/05/03 12:58:00;;;;;;;4.83;4.53;;;;;;;;;;5054204;28;20827;-77
2023/05/03 13:00:32;;;;;;;4.67;4.33;;;;;;;;;;5055371;28;20450;-77
2023/05/03 13:03:00;;;;;;;4.57;4.20;;;;;;;;;;5053556;28;20453;-77
2023/05/03 13:05:29;;;;;;;5.73;5.23;;;;;;;;;;5053838;28;20457;-75
2023/05/03 13:07:58;;;;;;;5.17;4.67;;;;;;;;;;5053420;28;20478;-76
2023/05/03 13:10:29;;;;;;;5.00;4.70;;;;;;;;;;5053062;28;20452;-76
2023/05/03 13:12:58;;;;;;;4.83;4.50;;;;;;;;;;5053784;28;20829;-76
2023/05/03 13:15:28;;;;;;;5.00;4.30;;;;;;;;;;5052360;28;20450;-77
2023/05/03 13:18:03;;;;;;;4.60;4.30;;;;;;;;;;5052672;28;20480;-76
2023/05/03 13:20:32;;;;;;;4.43;4.03;;;;;;;;;;5052970;28;20449;-77
2023/05/03 13:22:59;;;;;;;4.23;3.93;;;;;;;;;;5053054;28;20880;-76
2023/05/03 13:25:30;;;;;;;4.33;3.70;;;;;;;;;;5056602;28;20457;-78
2023/05/03 13:28:00;;;;;;;4.70;4.30;;;;;;;;;;5057812;28;20483;-77
2023/05/03 13:30:30;;;;;;;5.20;4.80;;;;;;;;;;5058617;28;20449;-77
2023/05/03 13:33:01;;;;;;;4.87;4.47;;;;;;;;;;5054867;28;20592;-77
2023/05/03 13:35:30;;;;;;;5.53;5.13;;;;;;;;;;5056751;28;20450;-78
2023/05/03 13:37:57;;;;;;;5.70;4.77;;;;;;;;;;5058720;28;20508;-79
2023/05/03 13:40:28;;;;;;;4.20;3.90;;;;;;;;;;5061658;28;20465;-76
2023/05/03 13:42:57;;;;;;;4.03;3.80;;;;;;;;;;5061405;28;20502;-78
2023/05/03 13:45:25;;;;;;;4.17;3.77;;;;;;;;;;5061392;28;20882;-78
2023/05/03 13:47:53;;;;;;;4.33;4.03;;;;;;;;;;5060504;28;20816;-75
2023/05/03 13:50:20;;;;;;;5.10;4.10;;;;;;;;;;5060802;28;20453;-81
2023/05/03 13:52:48;;;;;;;4.07;3.77;;;;;;;;;;5059151;28;20449;-79
2023/05/03 13:58:06;;;;;;;4.77;4.47;;;;;;;;;;5045577;28;20462;-76
2023/05/03 14:00:38;;;;;;;4.57;4.17;;;;;;;;;;5057297;28;20468;-77
2023/05/03 14:03:07;;;;;;;3.70;3.50;;;;;;;;;;5059180;28;20552;-78
2023/05/03 14:05:36;;;;;;;4.13;3.83;;;;;;;;;;5059773;28;20457;-78
2023/05/03 14:08:05;;;;;;;6.00;5.50;;;;;;;;;;5058721;28;20535;-77
2023/05/03 14:10:38;;;;;;;4.13;3.87;;;;;;;;;;5058766;28;20472;-78
2023/05/03 14:13:10;;;;;;;4.73;4.20;;;;;;;;;;5057936;28;20450;-78
2023/05/03 14:15:40;;;;;;;4.80;4.47;;;;;;;;;;5057581;28;20429;-76
2023/05/03 14:18:12;;;;;;;3.90;3.60;;;;;;;;;;5059812;28;20477;-79
2023/05/03 14:20:41;;;;;;;4.30;4.00;;;;;;;;;;5056653;28;20457;-78
2023/05/03 14:23:10;;;;;;;4.23;3.93;;;;;;;;;;5056816;28;20480;-79
2023/05/03 14:25:38;;;;;;;4.00;3.70;;;;;;;;;;5057223;28;20434;-77
2023/05/03 14:28:10;;;;;;;3.83;3.53;;;;;;;;;;5055760;28;20508;-76
2023/05/03 14:30:39;;;;;;;3.97;3.70;;;;;;;;;;5056107;28;20465;-77
2023/05/03 14:33:08;;;;;;;3.93;3.60;;;;;;;;;;5056542;28;20460;-78
2023/05/03 14:35:38;;;;;;;3.57;3.27;;;;;;;;;;5060414;28;20520;-79
2023/05/03 14:38:07;;;;;;;3.90;3.60;;;;;;;;;;5061287;28;20834;-76
2023/05/03 14:40:39;;;;;;;4.57;4.17;;;;;;;;;;5061413;28;20433;-77
2023/05/03 14:43:15;;;;;;;3.70;3.40;;;;;;;;;;5061732;28;20552;-78
2023/05/03 14:45:49;;;;;;;4.03;3.70;;;;;;;;;;5062063;28;20462;-77
2023/05/03 14:48:19;;;;;;;4.33;4.03;;;;;;;;;;5061290;28;20465;-78
2023/05/03 14:50:58;;;;;;;4.00;3.70;;;;;;;;;;5059429;28;20537;-76
2023/05/03 14:53:29;;;;;;;6.50;6.00;;;;;;;;;;5062073;28;20445;-80
2023/05/03 14:55:58;;;;;;;3.67;3.47;;;;;;;;;;5062529;28;20548;-78
2023/05/03 14:58:31;;;;;;;4.50;4.20;;;;;;;;;;5062235;28;20465;-78
2023/05/03 15:01:03;;;;;;;4.23;3.47;;;;;;;;;;5063246;28;20473;-76
2023/05/03 15:03:33;;;;;;;3.80;3.50;;;;;;;;;;5062544;28;20446;-76
2023/05/03 15:06:03;;;;;;;3.10;2.77;;;;;;;;;;5063188;28;20452;-78
2023/05/03 15:08:36;;;;;;;4.07;3.77;;;;;;;;;;5061933;28;20473;-78
2023/05/03 15:11:08;;;;;;;3.37;3.07;;;;;;;;;;5060095;28;20445;-78
2023/05/03 15:13:47;;;;;;;4.00;3.80;;;;;;;;;;5060314;28;20461;-76
2023/05/03 15:16:22;;;;;;;3.70;3.40;;;;;;;;;;5061088;28;20480;-79
2023/05/03 15:18:55;;;;;;;3.63;3.33;;;;;;;;;;5063418;28;20472;-79
2023/05/03 15:21:35;;;;;;;3.40;3.20;;;;;;;;;;5063584;28;20446;-80
2023/05/03 15:24:03;;;;;;;5.27;4.83;;;;;;;;;;5062376;28;20936;-78
2023/05/03 15:26:45;;;;;;;3.43;3.23;;;;;;;;;;5061893;28;20459;-77
2023/05/03 15:29:16;;;;;;;3.13;2.93;;;;;;;;;;5059763;28;20476;-75
2023/05/03 15:31:50;;;;;;;3.30;3.10;;;;;;;;;;5058623;28;20491;-76
2023/05/03 15:34:19;;;;;;;4.60;4.20;;;;;;;;;;5056424;28;20531;-77
2023/05/03 15:36:53;;;;;;;3.57;3.27;;;;;;;;;;5058095;28;20840;-77
2023/05/03 15:39:27;;;;;;;3.43;3.23;;;;;;;;;;5055547;28;20484;-81
2023/05/03 15:41:55;;;;;;;3.20;2.90;;;;;;;;;;5059894;28;21037;-77
2023/05/03 15:44:33;;;;;;;3.23;3.00;;;;;;;;;;5064557;28;20517;-78
2023/05/03 15:47:01;;;;;;;3.23;3.03;;;;;;;;;;5056788;28;20457;-78
2023/05/03 15:49:38;;;;;;;3.13;2.93;;;;;;;;;;5054327;28;20930;-78
2023/05/03 15:52:11;;;;;;;3.03;2.83;;;;;;;;;;5056831;28;20973;-76
2023/05/03 15:54:42;;;;;;;3.07;2.77;;;;;;;;;;5056958;28;20477;-78
2023/05/03 15:57:10;;;;;;;3.20;2.90;;;;;;;;;;5058237;28;21029;-78
2023/05/03 15:59:43;;;;;;;2.97;2.77;;;;;;;;;;5060741;28;20493;-78
2023/05/03 16:02:11;;;;;;;3.00;2.83;;;;;;;;;;5061078;28;20461;-77
2023/05/03 16:04:42;;;;;;;2.97;2.77;;;;;;;;;;5063666;28;20454;-77
2023/05/03 16:07:19;;;;;;;3.20;2.70;;;;;;;;;;5063228;28;20426;-77
2023/05/03 16:09:54;;;;;;;2.93;2.73;;;;;;;;;;5061191;28;20460;-76
2023/05/03 16:12:26;;;;;;;2.93;2.73;;;;;;;;;;5061321;28;20457;-77
2023/05/03 16:14:59;;;;;;;2.83;2.63;;;;;;;;;;5061474;28;20522;-77
2023/05/03 16:17:52;;;;;;;4.77;3.03;;;;;;;;;;5061481;28;20472;-76
2023/05/03 16:20:21;;;;;;;3.17;2.87;;;;;;;;;;5030915;28;20999;-77
2023/05/03 16:22:49;;;;;;;3.23;3.03;;;;;;;;;;5040676;28;20512;-77
2023/05/03 16:25:23;;;;;;;3.00;2.80;;;;;;;;;;5041929;28;20438;-76
2023/05/03 16:27:52;;;;;;;3.27;3.07;;;;;;;;;;5039783;28;20522;-76
2023/05/03 16:30:23;;;;;;;3.03;2.80;;;;;;;;;;5042827;28;20592;-77
2023/05/03 16:32:54;;;;;;;2.97;2.77;;;;;;;;;;5040309;28;20450;-75
2023/05/03 16:35:27;;;;;;;3.00;2.80;;;;;;;;;;5039773;28;20475;-78
2023/05/03 16:38:06;;;;;;;2.80;2.70;;;;;;;;;;5039611;28;20999;-76
2023/05/03 16:40:38;;;;;;;2.27;2.17;;;;;;;;;;5038486;28;20489;-76
2023/05/03 16:43:14;;;;;;;3.00;2.80;;;;;;;;;;5047165;28;20516;-77
2023/05/03 16:45:45;;;;;;;2.70;2.60;;;;;;;;;;5050606;28;20453;-78
2023/05/03 16:48:14;;;;;;;2.97;2.37;;;;;;;;;;5051601;28;20462;-75
2023/05/03 16:50:44;;;;;;;2.77;2.57;;;;;;;;;;5047365;28;20463;-77
2023/05/03 16:53:15;;;;;;;3.40;2.97;;;;;;;;;;5038704;28;20880;-77
2023/05/03 16:55:45;;;;;;;2.70;2.60;;;;;;;;;;5039174;28;20569;-75
2023/05/03 16:58:20;;;;;;;3.20;3.00;;;;;;;;;;5037354;28;20536;-76
2023/05/03 17:00:53;;;;;;;3.10;2.90;;;;;;;;;;5039270;28;20504;-77
2023/05/03 17:03:34;;;;;;;3.30;3.10;;;;;;;;;;5043185;28;20455;-78
2023/05/03 17:06:11;;;;;;;3.47;3.10;;;;;;;;;;5052797;28;20473;-76
2023/05/03 17:08:43;;;;;;;3.20;3.00;;;;;;;;;;5053857;28;20478;-77
2023/05/03 17:11:14;;;;;;;3.33;2.77;;;;;;;;;;5053708;28;20446;-77